Time,TemperatureF,DewpointF,PressureIn,WindDirection,WindDirectionDegrees,WindSpeedMPH,WindSpeedGustMPH,Humidity,HourlyPrecipIn,Conditions,Clouds,dailyrainin,SoftwareType,DateUTC
2013-01-14 00:01:00,46.0,10.0,30.13,North,0,7.0,9.0,23,0.00,,,0.00,,2013-01-14 07:01:00,
2013-01-14 00:11:00,46.0,10.0,30.13,North,0,7.0,9.0,23,0.00,,,0.00,,2013-01-14 07:11:00,
2013-01-14 00:22:00,46.0,10.0,30.13,North,0,8.0,12.0,23,0.00,,,0.00,,2013-01-14 07:22:00,
2013-01-14 00:32:00,45.0,10.0,30.14,North,0,5.0,6.0,24,0.00,,,0.00,,2013-01-14 07:32:00,
2013-01-14 00:42:00,45.0,10.0,30.14,North,0,5.0,6.0,24,0.00,,,0.00,,2013-01-14 07:42:00,
2013-01-14 00:52:00,44.0,10.0,30.14,North,0,6.0,9.0,24,0.00,,,0.00,,2013-01-14 07:52:00,
2013-01-14 01:01:00,44.0,10.0,30.14,North,0,6.0,9.0,24,0.00,,,0.00,,2013-01-14 08:01:00,
2013-01-14 01:11:00,44.0,10.0,30.14,North,0,6.0,9.0,24,0.00,,,0.00,,2013-01-14 08:11:00,
2013-01-14 01:22:00,44.0,10.0,30.15,North,0,6.0,12.0,24,0.00,,,0.00,,2013-01-14 08:22:00,
2013-01-14 01:32:00,43.0,9.0,30.15,NNE,23,5.0,7.0,24,0.00,,,0.00,,2013-01-14 08:32:00,
2013-01-14 01:42:00,43.0,9.0,30.15,NNE,23,5.0,7.0,24,0.00,,,0.00,,2013-01-14 08:42:00,
2013-01-14 01:52:00,43.0,9.0,30.16,NNE,23,3.0,6.0,24,0.00,,,0.00,,2013-01-14 08:52:00,
2013-01-14 02:02:00,42.0,8.0,30.16,NE,45,5.0,6.0,24,0.00,,,0.00,,2013-01-14 09:02:00,
2013-01-14 02:11:00,42.0,8.0,30.16,NE,45,5.0,6.0,24,0.00,,,0.00,,2013-01-14 09:11:00,
2013-01-14 02:22:00,42.0,8.0,30.17,NNE,23,5.0,9.0,24,0.00,,,0.00,,2013-01-14 09:22:00,
2013-01-14 02:32:00,41.0,8.0,30.17,NE,45,2.0,3.0,25,0.00,,,0.00,,2013-01-14 09:32:00,
2013-01-14 02:42:00,41.0,8.0,30.17,NE,45,2.0,3.0,25,0.00,,,0.00,,2013-01-14 09:42:00,
2013-01-14 02:52:00,41.0,8.0,30.18,NE,45,3.0,6.0,25,0.00,,,0.00,,2013-01-14 09:52:00,
2013-01-14 03:02:00,41.0,7.0,30.18,NE,45,6.0,8.0,24,0.00,,,0.00,,2013-01-14 10:02:00,
2013-01-14 03:11:00,41.0,7.0,30.18,NE,45,6.0,8.0,24,0.00,,,0.00,,2013-01-14 10:11:00,
2013-01-14 03:22:00,41.0,8.0,30.18,NE,45,3.0,6.0,25,0.00,,,0.00,,2013-01-14 10:22:00,
2013-01-14 03:32:00,40.0,9.0,30.19,NE,45,3.0,7.0,27,0.00,,,0.00,,2013-01-14 10:32:00,
2013-01-14 03:42:00,40.0,9.0,30.19,NE,45,3.0,7.0,27,0.00,,,0.00,,2013-01-14 10:42:00,
2013-01-14 03:52:00,40.0,9.0,30.19,NNE,23,6.0,9.0,27,0.00,,,0.00,,2013-01-14 10:52:00,
2013-01-14 04:01:00,40.0,8.0,30.18,North,0,3.0,6.0,26,0.00,,,0.00,,2013-01-14 11:01:00,
2013-01-14 04:11:00,40.0,8.0,30.18,North,0,3.0,6.0,26,0.00,,,0.00,,2013-01-14 11:11:00,
2013-01-14 04:22:00,40.0,8.0,30.19,North,0,6.0,10.0,26,0.00,,,0.00,,2013-01-14 11:22:00,
2013-01-14 04:32:00,40.0,7.0,30.19,North,0,6.0,10.0,25,0.00,,,0.00,,2013-01-14 11:32:00,
2013-01-14 04:42:00,40.0,7.0,30.19,North,0,6.0,10.0,25,0.00,,,0.00,,2013-01-14 11:42:00,
2013-01-14 04:52:00,40.0,6.0,30.18,North,0,6.0,9.0,24,0.00,,,0.00,,2013-01-14 11:52:00,
2013-01-14 05:02:00,40.0,6.0,30.19,North,0,6.0,9.0,24,0.00,,,0.00,,2013-01-14 12:02:00,
2013-01-14 05:11:00,40.0,6.0,30.19,North,0,6.0,9.0,24,0.00,,,0.00,,2013-01-14 12:11:00,
2013-01-14 05:22:00,40.0,6.0,30.19,North,0,6.0,8.0,24,0.00,,,0.00,,2013-01-14 12:22:00,
2013-01-14 05:32:00,39.0,4.0,30.19,NNE,23,3.0,6.0,23,0.00,,,0.00,,2013-01-14 12:32:00,
2013-01-14 05:42:00,39.0,4.0,30.19,NNE,23,3.0,6.0,23,0.00,,,0.00,,2013-01-14 12:42:00,
2013-01-14 05:52:00,39.0,4.0,30.20,North,0,5.0,10.0,23,0.00,,,0.00,,2013-01-14 12:52:00,
2013-01-14 06:02:00,38.0,4.0,30.21,NNE,23,6.0,8.0,24,0.00,,,0.00,,2013-01-14 13:02:00,
2013-01-14 06:11:00,38.0,4.0,30.21,NNE,23,6.0,8.0,24,0.00,,,0.00,,2013-01-14 13:11:00,
2013-01-14 06:22:00,38.0,4.0,30.21,North,0,5.0,8.0,24,0.00,,,0.00,,2013-01-14 13:22:00,
2013-01-14 06:33:00,38.0,4.0,30.22,North,0,3.0,7.0,24,0.00,,,0.00,,2013-01-14 13:33:00,
2013-01-14 06:42:00,38.0,4.0,30.22,North,0,3.0,7.0,24,0.00,,,0.00,,2013-01-14 13:42:00,
2013-01-14 06:52:00,37.0,4.0,30.22,North,0,6.0,8.0,24,0.00,,,0.00,,2013-01-14 13:52:00,
2013-01-14 07:02:00,38.0,3.0,30.23,North,0,7.0,12.0,22,0.00,,,0.00,,2013-01-14 14:02:00,
2013-01-14 07:12:00,38.0,3.0,30.23,North,0,7.0,12.0,22,0.00,,,0.00,,2013-01-14 14:12:00,
2013-01-14 07:22:00,38.0,4.0,30.24,North,0,8.0,13.0,23,0.00,,,0.00,,2013-01-14 14:22:00,
2013-01-14 07:32:00,37.0,3.0,30.25,North,0,5.0,6.0,23,0.00,,,0.00,,2013-01-14 14:32:00,
2013-01-14 07:42:00,37.0,3.0,30.25,North,0,5.0,6.0,23,0.00,,,0.00,,2013-01-14 14:42:00,
2013-01-14 07:52:00,37.0,4.0,30.25,North,0,6.0,9.0,24,0.00,,,0.00,,2013-01-14 14:52:00,
2013-01-14 08:02:00,36.0,4.0,30.27,North,0,5.0,8.0,25,0.00,,,0.00,,2013-01-14 15:02:00,
2013-01-14 08:11:00,36.0,4.0,30.27,North,0,5.0,8.0,25,0.00,,,0.00,,2013-01-14 15:11:00,
2013-01-14 08:22:00,36.0,4.0,30.27,North,0,1.0,2.0,25,0.00,,,0.00,,2013-01-14 15:22:00,
2013-01-14 08:33:00,36.0,4.0,30.27,North,0,0.0,1.0,26,0.00,,,0.00,,2013-01-14 15:33:00,
2013-01-14 08:42:00,36.0,4.0,30.27,North,0,0.0,1.0,26,0.00,,,0.00,,2013-01-14 15:42:00,
2013-01-14 08:52:00,36.0,4.0,30.28,North,0,0.0,0.0,25,0.00,,,0.00,,2013-01-14 15:52:00,
2013-01-14 09:02:00,37.0,5.0,30.29,North,0,2.0,3.0,26,0.00,,,0.00,,2013-01-14 16:02:00,
2013-01-14 09:11:00,37.0,5.0,30.29,North,0,2.0,3.0,26,0.00,,,0.00,,2013-01-14 16:11:00,
2013-01-14 09:22:00,37.0,4.0,30.29,North,0,2.0,3.0,24,0.00,,,0.00,,2013-01-14 16:22:00,
2013-01-14 09:32:00,38.0,3.0,30.30,NNW,338,1.0,3.0,22,0.00,,,0.00,,2013-01-14 16:32:00,
2013-01-14 09:42:00,38.0,3.0,30.30,NNW,338,1.0,3.0,22,0.00,,,0.00,,2013-01-14 16:42:00,
2013-01-14 09:52:00,40.0,5.0,30.30,WNW,293,5.0,8.0,23,0.00,,,0.00,,2013-01-14 16:52:00,
2013-01-14 10:02:00,42.0,6.0,30.31,NNW,338,6.0,10.0,22,0.00,,,0.00,,2013-01-14 17:02:00,
2013-01-14 10:11:00,42.0,6.0,30.31,NNW,338,6.0,10.0,22,0.00,,,0.00,,2013-01-14 17:11:00,
2013-01-14 10:22:00,43.0,6.0,30.32,North,0,8.0,13.0,21,0.00,,,0.00,,2013-01-14 17:22:00,
2013-01-14 10:32:00,44.0,6.0,30.32,NNW,338,12.0,14.0,20,0.00,,,0.00,,2013-01-14 17:32:00,
2013-01-14 10:42:00,44.0,6.0,30.32,NNW,338,12.0,14.0,20,0.00,,,0.00,,2013-01-14 17:42:00,
2013-01-14 10:53:00,44.0,4.0,30.32,NNW,338,9.0,14.0,19,0.00,,,0.00,,2013-01-14 17:53:00,
2013-01-14 11:02:00,44.0,4.0,30.33,NW,315,7.0,10.0,19,0.00,,,0.00,,2013-01-14 18:02:00,
2013-01-14 11:12:00,45.0,5.0,30.32,North,0,8.0,13.0,19,0.00,,,0.00,,2013-01-14 18:12:00,
2013-01-14 11:22:00,45.0,5.0,30.32,North,0,8.0,13.0,19,0.00,,,0.00,,2013-01-14 18:22:00,
2013-01-14 11:33:00,46.0,6.0,30.31,NNW,338,10.0,15.0,19,0.00,,,0.00,,2013-01-14 18:33:00,
2013-01-14 11:42:00,46.0,6.0,30.31,NNW,338,10.0,15.0,19,0.00,,,0.00,,2013-01-14 18:42:00,
2013-01-14 11:52:00,46.0,6.0,30.31,NW,315,9.0,15.0,19,0.00,,,0.00,,2013-01-14 18:52:00,
2013-01-14 12:02:00,47.0,6.0,30.30,North,0,14.0,20.0,18,0.00,,,0.00,,2013-01-14 19:02:00,
2013-01-14 12:12:00,47.0,6.0,30.30,North,0,14.0,20.0,18,0.00,,,0.00,,2013-01-14 19:12:00,
2013-01-14 12:22:00,46.0,5.0,30.29,NW,315,7.0,10.0,18,0.00,,,0.00,,2013-01-14 19:22:00,
2013-01-14 12:32:00,47.0,6.0,30.28,North,0,5.0,12.0,18,0.00,,,0.00,,2013-01-14 19:32:00,
2013-01-14 12:42:00,47.0,6.0,30.28,North,0,5.0,12.0,18,0.00,,,0.00,,2013-01-14 19:42:00,
2013-01-14 12:52:00,47.0,6.0,30.27,North,0,8.0,15.0,18,0.00,,,0.00,,2013-01-14 19:52:00,
2013-01-14 13:02:00,47.0,6.0,30.27,NW,315,8.0,13.0,18,0.00,,,0.00,,2013-01-14 20:02:00,
2013-01-14 13:12:00,47.0,6.0,30.27,NW,315,8.0,13.0,18,0.00,,,0.00,,2013-01-14 20:12:00,
2013-01-14 13:22:00,49.0,6.0,30.27,NW,315,8.0,14.0,17,0.00,,,0.00,,2013-01-14 20:22:00,
2013-01-14 13:32:00,50.0,7.0,30.27,NNW,338,9.0,15.0,17,0.00,,,0.00,,2013-01-14 20:32:00,
2013-01-14 13:42:00,50.0,7.0,30.27,NNW,338,9.0,15.0,17,0.00,,,0.00,,2013-01-14 20:42:00,
2013-01-14 13:53:00,50.0,7.0,30.26,North,0,8.0,12.0,17,0.00,,,0.00,,2013-01-14 20:53:00,
2013-01-14 14:02:00,49.0,6.0,30.27,NNW,338,10.0,14.0,17,0.00,,,0.00,,2013-01-14 21:02:00,
2013-01-14 14:12:00,49.0,6.0,30.27,NNW,338,10.0,14.0,17,0.00,,,0.00,,2013-01-14 21:12:00,
2013-01-14 14:22:00,50.0,7.0,30.27,NW,315,6.0,9.0,17,0.00,,,0.00,,2013-01-14 21:22:00,
2013-01-14 14:32:00,49.0,6.0,30.26,North,0,9.0,12.0,17,0.00,,,0.00,,2013-01-14 21:32:00,
2013-01-14 14:42:00,49.0,6.0,30.26,North,0,9.0,12.0,17,0.00,,,0.00,,2013-01-14 21:42:00,
2013-01-14 14:53:00,50.0,7.0,30.26,NNW,338,10.0,14.0,17,0.00,,,0.00,,2013-01-14 21:53:00,
2013-01-14 15:02:00,50.0,6.0,30.26,NW,315,10.0,14.0,16,0.00,,,0.00,,2013-01-14 22:02:00,
2013-01-14 15:11:00,50.0,6.0,30.26,NW,315,10.0,14.0,16,0.00,,,0.00,,2013-01-14 22:11:00,
2013-01-14 15:22:00,50.0,6.0,30.26,NNW,338,7.0,12.0,16,0.00,,,0.00,,2013-01-14 22:22:00,
2013-01-14 15:32:00,50.0,6.0,30.27,NNW,338,13.0,21.0,16,0.00,,,0.00,,2013-01-14 22:32:00,
2013-01-14 15:42:00,50.0,6.0,30.27,NNW,338,13.0,21.0,16,0.00,,,0.00,,2013-01-14 22:42:00,
2013-01-14 15:52:00,50.0,4.0,30.27,North,0,7.0,9.0,15,0.00,,,0.00,,2013-01-14 22:52:00,
2013-01-14 16:02:00,50.0,4.0,30.28,North,0,10.0,15.0,15,0.00,,,0.00,,2013-01-14 23:02:00,
2013-01-14 16:11:00,50.0,4.0,30.28,North,0,10.0,15.0,15,0.00,,,0.00,,2013-01-14 23:11:00,
2013-01-14 16:22:00,50.0,4.0,30.27,NNW,338,10.0,12.0,15,0.00,,,0.00,,2013-01-14 23:22:00,
2013-01-14 16:32:00,50.0,4.0,30.28,NNW,338,7.0,16.0,15,0.00,,,0.00,,2013-01-14 23:32:00,
2013-01-14 16:42:00,50.0,4.0,30.28,NNW,338,7.0,16.0,15,0.00,,,0.00,,2013-01-14 23:42:00,
2013-01-14 16:52:00,50.0,4.0,30.29,NW,315,8.0,13.0,15,0.00,,,0.00,,2013-01-14 23:52:00,
2013-01-14 17:02:00,49.0,3.0,30.29,NNW,338,9.0,15.0,15,0.00,,,0.00,,2013-01-15 00:02:00,
2013-01-14 17:11:00,49.0,3.0,30.29,NNW,338,9.0,15.0,15,0.00,,,0.00,,2013-01-15 00:11:00,
2013-01-14 17:22:00,48.0,3.0,30.29,North,0,6.0,9.0,15,0.00,,,0.00,,2013-01-15 00:22:00,
2013-01-14 17:32:00,48.0,3.0,30.28,North,0,7.0,12.0,15,0.00,,,0.00,,2013-01-15 00:32:00,
2013-01-14 17:42:00,48.0,3.0,30.28,North,0,7.0,12.0,15,0.00,,,0.00,,2013-01-15 00:42:00,
2013-01-14 17:52:00,47.0,2.0,30.29,NNW,338,7.0,12.0,15,0.00,,,0.00,,2013-01-15 00:52:00,
2013-01-14 18:01:00,46.0,1.0,30.29,NNW,338,9.0,14.0,15,0.00,,,0.00,,2013-01-15 01:01:00,
2013-01-14 18:12:00,46.0,1.0,30.29,NW,315,6.0,10.0,15,0.00,,,0.00,,2013-01-15 01:12:00,
2013-01-14 18:22:00,46.0,1.0,30.29,NW,315,6.0,10.0,15,0.00,,,0.00,,2013-01-15 01:22:00,
2013-01-14 18:32:00,46.0,2.0,30.30,NNW,338,6.0,9.0,16,0.00,,,0.00,,2013-01-15 01:32:00,
2013-01-14 18:42:00,46.0,2.0,30.30,NNW,338,6.0,9.0,16,0.00,,,0.00,,2013-01-15 01:42:00,
2013-01-14 18:52:00,45.0,3.0,30.31,NW,315,6.0,9.0,17,0.00,,,0.00,,2013-01-15 01:52:00,
2013-01-14 19:01:00,44.0,2.0,30.32,North,0,5.0,7.0,17,0.00,,,0.00,,2013-01-15 02:01:00,
2013-01-14 19:11:00,44.0,2.0,30.32,North,0,5.0,7.0,17,0.00,,,0.00,,2013-01-15 02:11:00,
2013-01-14 19:22:00,44.0,3.0,30.32,NNW,338,1.0,2.0,18,0.00,,,0.00,,2013-01-15 02:22:00,
2013-01-14 19:32:00,43.0,2.0,30.32,North,0,5.0,7.0,18,0.00,,,0.00,,2013-01-15 02:32:00,
2013-01-14 19:42:00,43.0,2.0,30.32,North,0,5.0,7.0,18,0.00,,,0.00,,2013-01-15 02:42:00,
2013-01-14 19:52:00,43.0,2.0,30.32,NW,315,5.0,8.0,18,0.00,,,0.00,,2013-01-15 02:52:00,
2013-01-14 20:02:00,42.0,2.0,30.32,North,0,5.0,8.0,18,0.00,,,0.00,,2013-01-15 03:02:00,
2013-01-14 20:11:00,42.0,2.0,30.32,North,0,5.0,8.0,18,0.00,,,0.00,,2013-01-15 03:11:00,
2013-01-14 20:22:00,42.0,2.0,30.33,WNW,293,3.0,5.0,18,0.00,,,0.00,,2013-01-15 03:22:00,
2013-01-14 20:32:00,42.0,2.0,30.34,NW,315,2.0,5.0,18,0.00,,,0.00,,2013-01-15 03:32:00,
2013-01-14 20:42:00,42.0,2.0,30.34,NW,315,2.0,5.0,18,0.00,,,0.00,,2013-01-15 03:42:00,
2013-01-14 20:52:00,42.0,3.0,30.33,NNW,338,3.0,7.0,19,0.00,,,0.00,,2013-01-15 03:52:00,
2013-01-14 21:02:00,42.0,2.0,30.34,NNW,338,3.0,5.0,18,0.00,,,0.00,,2013-01-15 04:02:00,
2013-01-14 21:11:00,42.0,2.0,30.34,NNW,338,3.0,5.0,18,0.00,,,0.00,,2013-01-15 04:11:00,
2013-01-14 21:22:00,42.0,0.0,30.35,North,0,2.0,3.0,17,0.00,,,0.00,,2013-01-15 04:22:00,
2013-01-14 21:32:00,42.0,0.0,30.34,NNW,338,3.0,5.0,17,0.00,,,0.00,,2013-01-15 04:32:00,
2013-01-14 21:42:00,42.0,0.0,30.34,NNW,338,3.0,5.0,17,0.00,,,0.00,,2013-01-15 04:42:00,
2013-01-14 21:52:00,42.0,3.0,30.34,NNW,338,0.0,2.0,19,0.00,,,0.00,,2013-01-15 04:52:00,
2013-01-14 22:02:00,41.0,2.0,30.35,NNW,338,1.0,2.0,19,0.00,,,0.00,,2013-01-15 05:02:00,
2013-01-14 22:12:00,41.0,1.0,30.34,North,0,5.0,8.0,18,0.00,,,0.00,,2013-01-15 05:12:00,
2013-01-14 22:22:00,41.0,1.0,30.34,North,0,5.0,8.0,18,0.00,,,0.00,,2013-01-15 05:22:00,
2013-01-14 22:32:00,41.0,0.0,30.33,North,0,13.0,17.0,17,0.00,,,0.00,,2013-01-15 05:32:00,
2013-01-14 22:42:00,41.0,0.0,30.33,North,0,13.0,17.0,17,0.00,,,0.00,,2013-01-15 05:42:00,
2013-01-14 22:52:00,42.0,0.0,30.32,North,0,9.0,15.0,17,0.00,,,0.00,,2013-01-15 05:52:00,
2013-01-14 23:02:00,42.0,0.0,30.32,North,0,16.0,29.0,17,0.00,,,0.00,,2013-01-15 06:02:00,
2013-01-14 23:11:00,42.0,0.0,30.32,North,0,16.0,29.0,17,0.00,,,0.00,,2013-01-15 06:11:00,
2013-01-14 23:22:00,41.0,0.0,30.34,North,0,10.0,20.0,17,0.00,,,0.00,,2013-01-15 06:22:00,
2013-01-14 23:32:00,41.0,1.0,30.34,North,0,6.0,10.0,18,0.00,,,0.00,,2013-01-15 06:32:00,
2013-01-14 23:42:00,41.0,1.0,30.34,North,0,6.0,10.0,18,0.00,,,0.00,,2013-01-15 06:42:00,
2013-01-14 23:52:00,41.0,1.0,30.34,NNW,338,10.0,20.0,18,0.00,,,0.00,,2013-01-15 06:52:00,